createdAt,value
2023-04-18T00:00:55.374Z,73.65
2023-04-18T00:03:22.397Z,74.86
2023-04-18T00:05:49.348Z,73.41
2023-04-18T00:08:17.629Z,73.38
2023-04-18T00:10:44.605Z,75.04
2023-04-18T00:13:11.454Z,74.60
2023-04-18T00:15:38.472Z,73.87
2023-04-18T00:18:06.151Z,74.79
2023-04-18T00:20:33.192Z,73.74
2023-04-18T00:23:00.195Z,74.63
2023-04-18T00:25:28.628Z,72.91
2023-04-18T00:27:55.390Z,73.56
2023-04-18T00:30:23.971Z,74.32
2023-04-18T00:32:57.804Z,74.32
2023-04-18T00:35:24.905Z,73.41
2023-04-18T00:37:51.780Z,74.01
2023-04-18T00:40:18.806Z,73.82
2023-04-18T00:42:47.031Z,74.79
2023-04-18T00:45:14.390Z,74.63
2023-04-18T00:47:41.361Z,75.21
2023-04-18T00:50:11.571Z,76.57
2023-04-18T00:52:38.894Z,76.63
2023-04-18T00:55:08.620Z,76.16
2023-04-18T00:58:03.046Z,75.42
2023-04-18T01:00:31.651Z,75.33
2023-04-18T01:02:59.826Z,75.08
2023-04-18T01:06:09.755Z,75.53
2023-04-18T01:08:37.170Z,74.91
2023-04-18T01:11:08.027Z,74.33
2023-04-18T01:13:36.248Z,74.71
2023-04-18T01:16:04.402Z,73.92
2023-04-18T01:18:31.356Z,76.18
2023-04-18T01:20:59.046Z,73.45
2023-04-18T01:23:26.649Z,73.55
2023-04-18T01:25:54.808Z,74.11
2023-04-18T01:28:21.927Z,73.42
2023-04-18T01:30:48.831Z,74.86
2023-04-18T01:33:15.636Z,73.28
2023-04-18T01:35:42.707Z,75.23
2023-04-18T01:38:09.684Z,73.69
2023-04-18T01:40:36.655Z,74.01
2023-04-18T01:43:04.976Z,73.42
2023-04-18T01:45:31.905Z,73.09
2023-04-18T01:47:58.800Z,73.43
2023-04-18T01:50:25.662Z,72.57
2023-04-18T01:52:54.199Z,73.17
2023-04-18T01:55:21.274Z,73.64
2023-04-18T01:57:48.182Z,73.84
2023-04-18T02:00:17.561Z,74.18
2023-04-18T02:02:44.532Z,73.94
2023-04-18T02:05:11.906Z,74.25
2023-04-18T02:07:40.023Z,74.95
2023-04-18T02:10:08.906Z,74.79
2023-04-18T02:12:35.882Z,75.26
2023-04-18T02:15:12.171Z,75.92
2023-04-18T02:17:45.202Z,75.00
2023-04-18T02:20:17.453Z,75.71
2023-04-18T02:22:44.596Z,75.53
2023-04-18T02:25:11.507Z,75.77
2023-04-18T02:27:39.396Z,74.08
2023-04-18T02:30:08.733Z,73.04
2023-04-18T02:32:35.652Z,74.15
2023-04-18T02:35:04.981Z,75.13
2023-04-18T02:37:31.849Z,74.89
2023-04-18T02:39:58.738Z,74.59
2023-04-18T02:42:29.526Z,74.53
2023-04-18T02:44:57.008Z,74.62
2023-04-18T02:47:24.347Z,75.66
2023-04-18T02:49:51.210Z,74.85
2023-04-18T02:52:19.993Z,74.23
2023-04-18T02:54:47.020Z,76.16
2023-04-18T02:57:18.063Z,73.09
2023-04-18T02:59:59.245Z,73.61
2023-04-18T03:02:50.084Z,73.11
2023-04-18T03:05:34.677Z,75.53
2023-04-18T03:08:05.855Z,74.50
2023-04-18T03:10:33.084Z,73.87
2023-04-18T03:13:00.099Z,75.18
2023-04-18T03:15:28.414Z,74.50
2023-04-18T03:17:56.124Z,75.53
2023-04-18T03:20:24.117Z,74.36
2023-04-18T03:22:52.246Z,74.03
2023-04-18T03:25:25.341Z,74.46
2023-04-18T03:27:53.794Z,73.19
2023-04-18T03:30:26.545Z,73.17
2023-04-18T03:32:58.326Z,73.58
2023-04-18T03:35:25.555Z,74.81
2023-04-18T03:37:52.540Z,74.25
2023-04-18T03:40:26.341Z,74.24
2023-04-18T03:42:57.540Z,73.25
2023-04-18T03:45:25.894Z,73.84
2023-04-18T03:47:52.950Z,73.36
2023-04-18T03:50:22.028Z,73.85
2023-04-18T03:52:58.849Z,73.72
2023-04-18T03:55:27.700Z,73.00
2023-04-18T03:57:55.121Z,72.83
2023-04-18T04:00:27.306Z,72.49
2023-04-18T04:03:02.506Z,72.85
2023-04-18T04:05:30.628Z,73.96
2023-04-18T04:07:57.762Z,74.56
2023-04-18T04:10:26.737Z,74.46
2023-04-18T04:12:53.988Z,73.65
2023-04-18T04:15:21.271Z,73.90
2023-04-18T04:17:54.802Z,73.94
2023-04-18T04:20:22.034Z,74.45
2023-04-18T04:23:00.506Z,75.61
2023-04-18T04:25:33.821Z,74.01
2023-04-18T04:28:06.519Z,73.77
2023-04-18T04:30:38.778Z,75.57
2023-04-18T04:33:06.396Z,74.08
2023-04-18T04:35:33.365Z,75.65
2023-04-18T04:38:00.433Z,73.36
2023-04-18T04:40:34.849Z,74.77
2023-04-18T04:43:09.589Z,74.80
2023-04-18T04:45:37.668Z,74.24
2023-04-18T04:48:05.740Z,76.11
2023-04-18T04:50:34.233Z,73.18
2023-04-18T04:53:01.201Z,74.35
2023-04-18T04:55:28.212Z,74.34
2023-04-18T04:57:57.060Z,74.55
2023-04-18T05:00:44.006Z,75.34
2023-04-18T05:03:11.773Z,73.61
2023-04-18T05:05:38.901Z,74.05
2023-04-18T05:08:06.360Z,73.77
2023-04-18T05:10:34.311Z,73.99
2023-04-18T05:13:02.845Z,72.20
2023-04-18T05:15:29.903Z,72.76
2023-04-18T05:17:57.342Z,73.12
2023-04-18T05:20:24.751Z,73.63
2023-04-18T05:22:52.354Z,74.56
2023-04-18T05:25:19.514Z,73.33
2023-04-18T05:27:48.121Z,73.87
2023-04-18T05:30:19.049Z,74.00
2023-04-18T05:32:52.825Z,72.55
2023-04-18T05:35:22.846Z,74.08
2023-04-18T05:37:49.924Z,73.94
2023-04-18T05:40:17.035Z,72.22
2023-04-18T05:42:47.227Z,72.82
2023-04-18T05:45:14.957Z,72.70
2023-04-18T05:47:43.195Z,71.31
2023-04-18T05:50:10.790Z,71.00
2023-04-18T05:52:38.281Z,70.34
2023-04-18T05:55:06.384Z,71.07
2023-04-18T05:57:34.238Z,70.19
2023-04-18T06:00:01.056Z,72.34
2023-04-18T06:02:28.159Z,71.50
2023-04-18T06:04:56.630Z,71.43
2023-04-18T06:07:24.170Z,71.26
2023-04-18T06:09:51.965Z,70.33
2023-04-18T06:12:18.824Z,71.04
2023-04-18T06:14:46.265Z,72.05
2023-04-18T06:17:13.254Z,72.63
2023-04-18T06:19:40.106Z,72.94
2023-04-18T06:22:08.332Z,72.79
2023-04-18T06:24:36.181Z,73.02
2023-04-18T06:27:04.855Z,72.79
2023-04-18T06:29:31.836Z,73.10
2023-04-18T06:31:59.393Z,73.34
2023-04-18T06:34:27.083Z,72.34
2023-04-18T06:36:55.330Z,72.43
2023-04-18T06:39:23.513Z,71.18
2023-04-18T06:41:51.724Z,71.03
2023-04-18T06:44:27.751Z,72.44
2023-04-18T06:46:55.633Z,72.46
2023-04-18T06:49:26.495Z,71.72
2023-04-18T06:51:54.158Z,71.93
2023-04-18T06:54:21.071Z,71.74
2023-04-18T06:56:49.364Z,72.84
2023-04-18T06:59:16.342Z,73.03
2023-04-18T07:01:43.164Z,73.98
2023-04-18T07:04:30.419Z,72.69
2023-04-18T07:06:59.558Z,72.62
2023-04-18T07:09:29.690Z,72.61
2023-04-18T07:11:58.358Z,72.30
2023-04-18T07:14:27.620Z,72.33
2023-04-18T07:16:56.921Z,72.06
2023-04-18T07:19:26.209Z,71.68
2023-04-18T07:22:01.499Z,71.08
2023-04-18T07:24:29.093Z,71.87
2023-04-18T07:27:04.935Z,69.66
2023-04-18T07:29:32.062Z,67.51
2023-04-18T07:32:02.923Z,66.42
2023-04-18T07:34:30.820Z,67.51
2023-04-18T07:37:00.399Z,66.37
2023-04-18T07:39:27.669Z,68.88
2023-04-18T07:41:54.818Z,73.27
2023-04-18T07:44:23.139Z,74.05
2023-04-18T07:47:44.579Z,73.64
2023-04-18T07:50:11.875Z,74.22
2023-04-18T07:52:39.583Z,73.14
2023-04-18T07:55:08.213Z,72.05
2023-04-18T07:57:35.290Z,72.28
2023-04-18T08:00:04.672Z,71.38
2023-04-18T08:07:13.542Z,70.72
2023-04-18T08:09:40.813Z,71.20
2023-04-18T08:12:08.452Z,70.48
2023-04-18T08:14:35.783Z,68.04
2023-04-18T08:21:10.668Z,71.67
2023-04-18T08:23:38.141Z,70.38
2023-04-18T08:26:05.450Z,69.58
2023-04-18T08:28:32.833Z,69.93
2023-04-18T08:31:24.065Z,69.09
2023-04-18T08:33:53.510Z,68.05
2023-04-18T08:36:22.941Z,65.59
2023-04-18T08:38:50.468Z,63.97
2023-04-18T08:41:22.543Z,63.66
2023-04-18T08:43:49.734Z,62.71
2023-04-18T08:46:16.909Z,63.09
2023-04-18T08:48:44.311Z,64.18
2023-04-18T08:51:11.420Z,67.01
2023-04-18T08:54:08.274Z,66.69
2023-04-18T08:56:35.484Z,67.00
2023-04-18T08:59:02.444Z,65.59
2023-04-18T09:01:55.729Z,65.01
2023-04-18T09:04:37.761Z,65.64
2023-04-18T09:07:07.724Z,67.74
2023-04-18T09:09:48.180Z,69.21
2023-04-18T09:12:17.671Z,69.07
2023-04-18T09:14:46.358Z,70.07
2023-04-18T09:17:46.753Z,69.33
2023-04-18T09:20:26.322Z,69.15
2023-04-18T09:22:56.653Z,69.11
2023-04-18T09:25:39.836Z,69.22
2023-04-18T09:28:23.548Z,69.22
2023-04-18T09:30:52.287Z,69.45
2023-04-18T09:33:26.929Z,68.78
2023-04-18T09:35:53.975Z,68.10
2023-04-18T09:38:38.733Z,68.36
2023-04-18T09:41:11.338Z,67.23
2023-04-18T09:43:38.915Z,68.01
2023-04-18T09:46:07.660Z,67.66
2023-04-18T09:48:35.001Z,67.30
2023-04-18T09:51:07.660Z,65.44
2023-04-18T09:53:40.711Z,64.06
2023-04-18T09:56:19.585Z,64.40
2023-04-18T09:58:55.602Z,63.50
2023-04-18T10:01:26.636Z,63.37
2023-04-18T10:03:57.087Z,62.55
2023-04-18T10:06:28.392Z,63.49
2023-04-18T10:08:56.802Z,62.68
2023-04-18T10:11:25.594Z,64.15
2023-04-18T10:14:45.103Z,65.02
2023-04-18T10:17:16.697Z,64.31
2023-04-18T10:19:43.817Z,66.08
2023-04-18T10:22:11.881Z,64.65
2023-04-18T10:24:50.743Z,64.31
2023-04-18T10:27:39.653Z,64.50
2023-04-18T10:30:09.345Z,66.21
2023-04-18T10:32:36.522Z,65.51
2023-04-18T10:35:06.087Z,65.27
2023-04-18T10:37:33.679Z,66.17
2023-04-18T10:40:02.065Z,64.55
2023-04-18T10:43:03.725Z,65.15
2023-04-18T10:45:31.004Z,66.55
2023-04-18T10:48:22.808Z,65.46
2023-04-18T10:51:15.885Z,66.34
2023-04-18T10:53:52.133Z,67.59
2023-04-18T10:56:19.603Z,67.21
2023-04-18T10:59:22.816Z,66.51
2023-04-18T11:01:57.294Z,66.24
2023-04-18T11:04:25.198Z,66.07
2023-04-18T11:06:54.180Z,64.43
2023-04-18T11:09:21.189Z,64.47
2023-04-18T11:12:03.955Z,64.04
2023-04-18T11:14:41.102Z,64.12
2023-04-18T11:17:19.169Z,65.06
2023-04-18T11:19:46.967Z,65.64
2023-04-18T11:22:15.517Z,65.37
2023-04-18T11:25:59.180Z,65.25
2023-04-18T11:28:27.838Z,65.92
2023-04-18T11:31:00.786Z,65.61
2023-04-18T11:33:29.229Z,66.23
2023-04-18T11:35:58.053Z,66.21
2023-04-18T11:38:29.030Z,66.00
2023-04-18T11:40:56.456Z,65.48
2023-04-18T11:43:25.202Z,66.36
2023-04-18T11:45:54.188Z,65.14
2023-04-18T11:48:22.501Z,64.04
2023-04-18T11:50:49.997Z,65.17
2023-04-18T11:53:32.447Z,64.48
2023-04-18T11:55:59.603Z,63.29
2023-04-18T11:58:32.616Z,63.48
2023-04-18T12:01:00.762Z,63.48
2023-04-18T12:03:29.321Z,62.13
2023-04-18T12:09:30.205Z,61.29
2023-04-18T12:11:57.917Z,63.51
2023-04-18T12:14:24.958Z,62.61
2023-04-18T12:16:52.492Z,64.29
2023-04-18T12:19:25.189Z,63.17
2023-04-18T12:21:57.197Z,62.34
2023-04-18T12:24:27.217Z,62.46
2023-04-18T12:26:54.404Z,61.65
2023-04-18T12:29:21.720Z,63.34
2023-04-18T12:31:48.696Z,61.03
2023-04-18T12:34:15.845Z,62.38
2023-04-18T12:36:45.314Z,61.22
2023-04-18T12:39:12.277Z,61.68
2023-04-18T12:41:39.138Z,61.24
2023-04-18T12:44:07.600Z,59.78
2023-04-18T12:46:34.924Z,59.83
2023-04-18T12:49:01.817Z,58.41
2023-04-18T12:51:29.429Z,59.72
2023-04-18T12:53:57.740Z,59.80
2023-04-18T12:56:24.969Z,58.29
2023-04-18T12:58:52.263Z,59.78
2023-04-18T13:01:19.202Z,59.57
2023-04-18T13:03:56.279Z,59.01
2023-04-18T13:06:31.259Z,59.30
2023-04-18T13:09:00.345Z,59.60
2023-04-18T13:11:27.325Z,59.58
2023-04-18T13:13:54.668Z,59.87
2023-04-18T13:16:21.949Z,59.43
2023-04-18T13:18:48.980Z,59.07
2023-04-18T13:21:16.122Z,60.07
2023-04-18T13:23:42.950Z,61.41
2023-04-18T13:26:11.573Z,60.60
2023-04-18T13:28:38.436Z,61.20
2023-04-18T13:31:06.229Z,60.25
2023-04-18T13:33:33.344Z,60.06
2023-04-18T13:36:01.394Z,61.47
2023-04-18T13:38:28.311Z,61.56
2023-04-18T13:41:08.586Z,61.83
2023-04-18T13:43:40.957Z,61.01
2023-04-18T13:46:11.568Z,59.94
2023-04-18T13:49:57.055Z,61.05
2023-04-18T13:52:25.563Z,60.97
2023-04-18T13:54:53.144Z,61.21
2023-04-18T13:57:20.422Z,60.95
2023-04-18T13:59:48.749Z,60.49
2023-04-18T14:02:15.996Z,60.07
2023-04-18T14:04:43.122Z,59.52
2023-04-18T14:07:10.766Z,60.20
2023-04-18T14:09:37.738Z,59.74
2023-04-18T14:12:05.451Z,60.03
2023-04-18T14:14:32.421Z,60.53
2023-04-18T14:17:00.641Z,61.15
2023-04-18T14:19:27.524Z,60.62
2023-04-18T14:21:54.547Z,61.24
2023-04-18T14:24:21.572Z,60.61
2023-04-18T14:26:50.118Z,61.07
2023-04-18T14:29:17.213Z,60.79
2023-04-18T14:33:00.307Z,60.12
2023-04-18T14:35:29.171Z,60.01
2023-04-18T14:37:57.116Z,60.90
2023-04-18T14:40:24.376Z,60.47
2023-04-18T14:42:51.342Z,59.39
2023-04-18T14:45:19.209Z,60.22
2023-04-18T14:47:46.152Z,60.37
2023-04-18T14:50:13.301Z,60.54
2023-04-18T14:52:42.514Z,60.79
2023-04-18T14:55:10.790Z,59.20
2023-04-18T14:57:39.113Z,58.46
2023-04-18T15:00:20.696Z,58.52
2023-04-18T15:02:51.223Z,59.86
2023-04-18T15:05:22.429Z,59.23
2023-04-18T15:07:52.311Z,59.93
2023-04-18T15:10:19.887Z,58.50
2023-04-18T15:14:05.089Z,58.71
2023-04-18T15:16:32.808Z,58.33
2023-04-18T15:19:00.563Z,59.47
2023-04-18T15:21:27.435Z,58.68
2023-04-18T15:23:56.038Z,58.88
2023-04-18T15:26:23.257Z,59.19
2023-04-18T15:28:51.606Z,58.27
2023-04-18T15:31:18.475Z,58.91
2023-04-18T15:33:45.455Z,58.95
2023-04-18T15:36:37.210Z,58.28
2023-04-18T15:39:05.850Z,58.37
2023-04-18T15:41:35.941Z,58.24
2023-04-18T15:44:03.899Z,58.34
2023-04-18T15:46:31.178Z,58.29
2023-04-18T15:48:58.430Z,57.90
2023-04-18T15:51:26.817Z,58.59
2023-04-18T15:53:53.697Z,58.86
2023-04-18T15:56:22.322Z,59.26
2023-04-18T15:58:49.373Z,57.38
2023-04-18T16:01:16.524Z,57.74
2023-04-18T16:03:43.788Z,58.26
2023-04-18T16:06:11.256Z,57.96
2023-04-18T16:09:29.870Z,58.48
2023-04-18T16:11:58.441Z,57.89
2023-04-18T16:14:25.423Z,58.06
2023-04-18T16:16:52.334Z,57.36
2023-04-18T16:19:21.686Z,58.01
2023-04-18T16:21:48.836Z,58.18
2023-04-18T16:24:16.482Z,57.77
2023-04-18T16:26:43.616Z,57.96
2023-04-18T16:29:14.497Z,58.27
2023-04-18T16:31:42.276Z,57.62
2023-04-18T16:34:09.839Z,58.70
2023-04-18T16:36:36.901Z,58.44
2023-04-18T16:39:03.957Z,58.15
2023-04-18T16:41:31.031Z,59.18
2023-04-18T16:43:57.952Z,59.74
2023-04-18T16:46:26.288Z,59.57
2023-04-18T16:48:53.123Z,59.77
2023-04-18T16:51:20.063Z,60.55
2023-04-18T16:53:47.030Z,59.81
2023-04-18T16:57:30.589Z,60.04
2023-04-18T16:59:57.555Z,60.20
2023-04-18T17:02:26.609Z,61.06
2023-04-18T17:04:53.701Z,61.17
2023-04-18T17:08:10.880Z,61.64
2023-04-18T17:11:16.438Z,61.21
2023-04-18T17:13:43.656Z,61.67
2023-04-18T17:16:41.543Z,62.09
2023-04-18T17:19:10.425Z,62.28
2023-04-18T17:21:38.284Z,62.29
2023-04-18T17:24:06.168Z,62.67
2023-04-18T17:26:35.426Z,63.32
2023-04-18T17:29:02.841Z,63.07
2023-04-18T17:31:30.427Z,63.88
2023-04-18T17:33:57.575Z,63.84
2023-04-18T17:36:27.518Z,63.77
2023-04-18T17:38:54.606Z,64.35
2023-04-18T17:41:22.296Z,64.07
2023-04-18T17:43:50.706Z,63.96
2023-04-18T17:46:17.698Z,63.71
2023-04-18T17:48:44.921Z,64.62
2023-04-18T17:51:11.897Z,64.57
2023-04-18T17:54:03.505Z,64.49
2023-04-18T17:56:50.796Z,63.88
2023-04-18T17:59:18.272Z,64.55
2023-04-18T18:01:45.333Z,64.81
2023-04-18T18:04:12.654Z,64.65
2023-04-18T18:06:56.920Z,65.15
2023-04-18T18:09:25.377Z,65.66
2023-04-18T18:11:54.652Z,65.09
2023-04-18T18:14:23.009Z,65.32
2023-04-18T18:16:50.242Z,65.89
2023-04-18T18:19:17.106Z,66.00
2023-04-18T18:21:44.643Z,65.87
2023-04-18T18:24:11.779Z,66.29
2023-04-18T18:26:40.445Z,66.77
2023-04-18T18:29:10.496Z,67.05
2023-04-18T18:31:39.114Z,66.85
2023-04-18T18:34:06.329Z,66.45
2023-04-18T18:36:33.519Z,66.84
2023-04-18T18:39:00.511Z,66.70
2023-04-18T18:41:27.703Z,66.86
2023-04-18T18:43:56.243Z,67.34
2023-04-18T18:46:23.192Z,67.64
2023-04-18T18:48:50.198Z,67.59
2023-04-18T18:51:18.952Z,67.05
2023-04-18T18:53:48.359Z,67.46
2023-04-18T18:56:15.252Z,67.70
2023-04-18T18:58:42.559Z,67.96
2023-04-18T19:01:11.157Z,67.34
2023-04-18T19:03:44.453Z,67.95
2023-04-18T19:06:20.308Z,68.22
2023-04-18T19:09:06.153Z,68.08
2023-04-18T19:11:35.409Z,68.17
2023-04-18T19:14:05.206Z,68.34
2023-04-18T19:16:33.705Z,68.90
2023-04-18T19:19:00.753Z,68.60
2023-04-18T19:21:28.362Z,68.55
2023-04-18T19:23:55.643Z,68.83
2023-04-18T19:26:22.840Z,69.17
2023-04-18T19:28:50.852Z,69.55
2023-04-18T19:31:17.727Z,70.23
2023-04-18T19:33:46.608Z,69.57
2023-04-18T19:36:14.188Z,69.75
2023-04-18T19:38:41.718Z,70.06
2023-04-18T19:41:08.546Z,69.97
2023-04-18T19:43:52.520Z,69.79
2023-04-18T19:46:19.576Z,69.72
2023-04-18T19:48:47.739Z,69.78
2023-04-18T19:51:14.624Z,70.21
2023-04-18T19:53:41.742Z,69.98
2023-04-18T19:56:08.647Z,70.36
2023-04-18T19:58:37.288Z,70.74
2023-04-18T20:01:04.258Z,69.97
2023-04-18T20:03:31.681Z,70.29
2023-04-18T20:06:00.441Z,70.61
2023-04-18T20:08:27.469Z,70.58
2023-04-18T20:10:54.292Z,71.82
2023-04-18T20:13:21.131Z,70.83
2023-04-18T20:15:48.110Z,71.21
2023-04-18T20:18:15.123Z,68.23
2023-04-18T20:20:42.049Z,70.50
2023-04-18T20:23:10.623Z,70.40
2023-04-18T20:25:37.515Z,69.97
2023-04-18T20:28:05.191Z,69.36
2023-04-18T20:30:32.080Z,71.43
2023-04-18T20:32:59.294Z,71.81
2023-04-18T20:35:27.374Z,71.41
2023-04-18T20:37:54.293Z,71.78
2023-04-18T20:40:23.501Z,71.86
2023-04-18T20:42:50.560Z,72.65
2023-04-18T20:45:17.463Z,71.89
2023-04-18T20:47:44.393Z,71.82
2023-04-18T20:50:11.426Z,72.21
2023-04-18T20:52:38.326Z,72.38
2023-04-18T20:55:06.219Z,71.86
2023-04-18T20:57:35.671Z,72.05
2023-04-18T21:00:55.093Z,71.96
2023-04-18T21:03:23.313Z,71.78
2023-04-18T21:05:51.293Z,72.15
2023-04-18T21:08:18.252Z,72.25
2023-04-18T21:10:45.345Z,72.82
2023-04-18T21:13:13.693Z,72.50
2023-04-18T21:15:41.256Z,72.04
2023-04-18T21:18:08.258Z,72.06
2023-04-18T21:20:35.122Z,72.58
2023-04-18T21:23:02.304Z,72.62
2023-04-18T21:25:29.203Z,72.96
2023-04-18T21:27:56.029Z,73.18
2023-04-18T21:30:24.268Z,72.81
2023-04-18T21:32:51.271Z,72.99
2023-04-18T21:35:20.127Z,73.02
2023-04-18T21:37:48.330Z,73.47
2023-04-18T21:40:15.469Z,73.38
2023-04-18T21:42:42.541Z,73.05
2023-04-18T21:45:11.079Z,73.74
2023-04-18T21:47:39.351Z,73.66
2023-04-18T21:50:08.941Z,74.05
2023-04-18T21:52:36.344Z,73.56
2023-04-18T21:55:04.038Z,74.47
2023-04-18T21:57:31.206Z,74.05
2023-04-18T21:59:58.156Z,73.99
2023-04-18T22:02:25.696Z,74.33
2023-04-18T22:04:54.483Z,74.55
2023-04-18T22:07:21.530Z,73.77
2023-04-18T22:09:48.655Z,74.34
2023-04-18T22:12:15.678Z,74.45
2023-04-18T22:14:43.120Z,74.60
2023-04-18T22:17:10.174Z,74.30
2023-04-18T22:19:37.185Z,74.51
2023-04-18T22:22:05.558Z,74.37
2023-04-18T22:24:32.464Z,74.61
2023-04-18T22:27:00.290Z,74.72
2023-04-18T22:29:27.620Z,75.18
2023-04-18T22:31:54.718Z,75.34
2023-04-18T22:34:21.621Z,75.48
2023-04-18T22:36:48.720Z,74.83
2023-04-18T22:39:17.069Z,75.16
2023-04-18T22:41:44.059Z,75.44
2023-04-18T22:44:11.280Z,75.07
2023-04-18T22:46:42.577Z,75.31
2023-04-18T22:49:57.110Z,75.48
2023-04-18T22:53:19.524Z,75.19
2023-04-18T22:55:51.374Z,74.85
2023-04-18T22:58:24.004Z,75.26
2023-04-18T23:00:50.959Z,76.02
2023-04-18T23:03:18.107Z,75.08
2023-04-18T23:05:46.259Z,75.03
2023-04-18T23:08:13.118Z,75.25
2023-04-18T23:10:40.029Z,75.24
2023-04-18T23:13:08.104Z,75.94
2023-04-18T23:15:35.410Z,75.36
2023-04-18T23:18:02.457Z,75.52
2023-04-18T23:20:29.400Z,76.07
2023-04-18T23:22:56.373Z,75.52
2023-04-18T23:25:23.315Z,75.79
2023-04-18T23:27:50.440Z,76.37
2023-04-18T23:30:27.792Z,76.20
2023-04-18T23:32:55.018Z,76.27
2023-04-18T23:35:22.035Z,76.31
2023-04-18T23:37:48.841Z,75.76
2023-04-18T23:40:16.255Z,75.49
2023-04-18T23:42:43.165Z,76.26
2023-04-18T23:45:11.913Z,75.82
2023-04-18T23:47:40.414Z,76.12
2023-04-18T23:50:08.889Z,76.37
2023-04-18T23:52:36.077Z,76.44
2023-04-18T23:55:03.243Z,76.02
2023-04-18T23:57:31.344Z,76.57
2023-04-18T23:59:58.243Z,76.54
